Rhapsody — IBQF — position and weather

sailwx.info

Track history (hours):
 
Tides and Currents Weather Stations Pressure Air Temp Water Temp Dewpoint Dewpoint Depression Visibility Wind Speed Wind Dir Waves Ship Positions

Rhapsody

Operator: Mediterranean Shipping Company

Last reported at 2017-Nov-19 16:01 UTC. Time now 2017-Nov-23 07:42 UTC.
Position N 37°45' W 000°16'.

Length 180 m; draft 7.5 m.

Type: Ship. MMSI: 247283200.

Date/timePositionNaut miles runAvg speedWind from/ knotsBaromVisibWave heightAir tempDewpointWater temp
2017-Nov-19 16:01N 37°45' W 000°16'013.4
2017-Nov-19 16:00N 37°44' W 000°16'713.2
2017-Nov-19 15:30N 37°39' W 000°21'713.2
2017-Nov-19 15:00N 37°33' W 000°25'612.7
2017-Nov-19 14:30N 37°29' W 000°31'813.1
2017-Nov-19 13:52N 37°24' W 000°40'513.1
2017-Nov-19 13:30N 37°22' W 000°45'713.0
2017-Nov-19 12:58N 37°17' W 000°52'22612.5
2017-Nov-18 18:51N 35°58' W 005°15'412.6
2017-Nov-18 18:30N 35°57' W 005°20'612.2
2017-Nov-18 18:00N 35°57' W 005°28'  
Track history (hours):
 
Tides and Currents Weather Stations Pressure Air Temp Water Temp Dewpoint Dewpoint Depression Visibility Wind Speed Wind Dir Waves Ship Positions

Rhapsody

Operator: Mediterranean Shipping Company

Last reported at 2017-Nov-19 16:01 UTC. Time now 2017-Nov-23 07:42 UTC.
Position N 37°45' W 000°16'.

Length 180 m; draft 7.5 m.

Type: Ship. MMSI: 247283200.

Date/timePositionNaut miles runAvg speedWind from/ knotsBaromVisibWave heightAir tempDewpointWater temp
2017-Nov-19 16:01N 37°45' W 000°16'013.4
2017-Nov-19 16:00N 37°44' W 000°16'713.2
2017-Nov-19 15:30N 37°39' W 000°21'713.2
2017-Nov-19 15:00N 37°33' W 000°25'612.7
2017-Nov-19 14:30N 37°29' W 000°31'813.1
2017-Nov-19 13:52N 37°24' W 000°40'513.1
2017-Nov-19 13:30N 37°22' W 000°45'713.0
2017-Nov-19 12:58N 37°17' W 000°52'22612.5
2017-Nov-18 18:51N 35°58' W 005°15'412.6
2017-Nov-18 18:30N 35°57' W 005°20'612.2
2017-Nov-18 18:00N 35°57' W 005°28'  

Dump ship's entire track history